Downsville, New York
Current Conditions -  °F | °C
As of 1:55 PM on Friday 21 Nov 2014 (Local Time) from KMSV Reporting Station
Overcast Overcast  
Wind Chill: 18°   Ceiling: 4100
Heat Index: 28°   Visibility: 10mi
Dew Point: 10°   Wind: 13mph
Humidity: 47%   Direction: 300°WNW
Pressure: 30.26"   Gusts: 23mph
Location:  42.08°N, 75°W
Report Text: KMSV 211855Z AUTO 30011G20KT 10SM BKN041 OVC048 M02/M12 A3026 RMK AO1
Loading
Personal Weather Stations






























Interactive Weather Map New forecast layout! Learn more

10-Day Weather Forecast

Advertisements
Track Severe Weather on mobile